Lumberton, NC (28358)

3:21 AM EDT on August 30, 2016 (GMT -0400)
Fayetteville Road | | Change Station

Elev 126 ft 34.67 °N, 78.99 °W | Updated 0 second ago

Overcast
Overcast
75.3 °F
Feels Like 73 °F
N
0.0
Wind Variable Wind from ESE
Gusts 0.0 mph

Today
High -- | Low -- °F
--% Chance of Precip.
Yesterday
High -- | Low -- °F
Precip. -- in
Pressure 30.06 in
Visibility 10.0 miles
Clouds Few 4100 ft
Overcast 9500 ft
Heat Index 73 °F
Dew Point 75 °F
Humidity 98%
Rainfall 0.00 in
Snow Depth Not available.
6:47 AM 7:44 PM
Waning Crescent, 5% visible
METAR KLBT 300654Z AUTO 00000KT 10SM FEW041 OVC095 23/22 A3007 RMK AO2 SLP179 T02330222 $
Pressure 30.06 in
Visibility 10.0 miles
Clouds Few 4100 ft
Overcast 9500 ft
Heat Index 73 °F
Dew Point 75 °F
Humidity 98%
Rainfall 0.00 in
Snow Depth Not available.
6:47 AM 7:44 PM
Waning Crescent, 5% visible
METAR KLBT 300654Z AUTO 00000KT 10SM FEW041 OVC095 23/22 A3007 RMK AO2 SLP179 T02330222 $

10-Day Weather Forecast

Almanac

Astronomy

Aug. 30, 2016 Rise Set
Actual Time
Civil Twilight
Nautical Twilight
Astronomical Twilight
Moon
Length of Visible Light
Length of Day
Tomorrow will be .
, % of the Moon is Illuminated

Today's Extremes

State Highs State Lows

Community

WunderPhotos

Upload Photos

1,935,795 photos uploaded!

WunderBlog® & News

Nearby

Air Quality

  Air Quality AQ Index Pollutant
Not available.

Snow Depth

Station Depth Elevation

Earthquake Activity

City Distance Mag. Time & Date
Minimum magnitude displayed is 2.5.

Coastal Water Temperatures

Place Temperature

Stations

Nearby Weather Stations

Station Location Temp. Windchill Dew Point Humidity Wind Precip. Elev Updated Type
                   

Watches & Warnings

There are currently no watches in effect.